.
WxDataArchive / Data Records for 2006-04-03
2006-04-02 April 2006 2006-04-04

Data Records for Monday, 03 April 2006

Time	Temp	Chill	HIndex	Humid	Dewpt	 Wind 	HiWind	WindDir	Rain 	Barom 
-----	----	-----	------	-----	-----	------	------	-------	-----	----- 
00:00	53.3	53.3	53.3	92	51.0	2	4	90	0.00	29.582 
00:05	53.3	53.3	53.3	92	51.0	1	3	112	0.00	29.582 
00:10	53.3	53.3	53.3	92	51.0	0	3	112	0.00	29.582 
00:15	53.3	53.3	53.3	92	51.0	0	1	112	0.00	29.557 
00:20	53.2	53.2	53.2	92	50.9	0	0	---	0.00	29.557 
00:25	53.1	53.1	53.1	92	50.8	0	1	112	0.00	29.557 
00:30	52.9	52.9	52.9	92	50.6	0	0	---	0.01	29.550 
00:35	52.9	52.9	52.9	92	50.6	0	1	112	0.00	29.550 
00:40	52.8	52.8	52.8	93	50.8	0	2	112	0.00	29.550 
00:45	52.8	52.8	52.8	93	50.8	0	0	---	0.00	29.534 
00:50	52.8	52.8	52.8	93	50.8	1	3	112	0.00	29.534 
00:55	53.1	53.1	53.1	94	51.4	2	3	248	0.00	29.534 
01:00	53.5	53.5	53.5	94	51.8	1	4	248	0.00	29.546 
01:05	53.8	53.8	53.8	94	52.1	1	4	248	0.00	29.546 
01:10	54.1	54.1	54.1	94	52.4	3	10	248	0.00	29.546 
01:15	54.2	54.2	54.2	92	51.9	3	7	248	0.00	29.547 
01:20	54.4	54.4	54.4	90	51.5	3	8	248	0.00	29.547 
01:25	54.4	54.4	54.4	89	51.2	1	4	270	0.00	29.547 
01:30	54.2	54.2	54.2	89	51.0	2	3	248	0.00	29.534 
01:35	54.2	54.2	54.2	89	51.0	2	5	248	0.00	29.534 
01:40	54.1	54.1	54.1	88	50.6	2	4	248	0.00	29.534 
01:45	54.1	54.1	54.1	88	50.6	3	7	248	0.00	29.563 
01:50	54.1	54.1	54.1	88	50.6	2	6	248	0.00	29.563 
01:55	54.2	54.2	54.2	88	50.7	4	10	270	0.00	29.563 
02:00	54.2	54.2	54.2	88	50.7	2	4	248	0.00	29.551 
02:05	54.2	54.2	54.2	88	50.7	2	6	248	0.00	29.551 
02:10	54.2	54.2	54.2	88	50.7	3	6	248	0.00	29.551 
02:15	54.2	54.2	54.2	88	50.7	2	5	248	0.00	29.562 
02:20	54.2	54.2	54.2	88	50.7	2	6	248	0.00	29.562 
02:25	54.1	54.1	54.1	88	50.6	3	6	248	0.00	29.562 
02:30	54.1	54.1	54.1	88	50.6	3	7	248	0.00	29.565 
02:35	54.1	54.1	54.1	88	50.6	3	10	225	0.00	29.565 
02:40	53.8	53.8	53.8	88	50.3	2	4	248	0.00	29.565 
02:45	53.6	53.6	53.6	88	50.1	3	7	225	0.00	29.549 
02:50	53.5	53.5	53.5	88	50.0	2	5	248	0.00	29.549 
02:55	53.3	53.3	53.3	88	49.8	2	4	248	0.00	29.549 
03:00	53.1	53.1	53.1	88	49.6	1	5	248	0.00	29.534 
03:05	52.9	52.9	52.9	89	49.7	2	5	248	0.00	29.534 
03:10	52.6	52.6	52.6	89	49.4	2	7	248	0.00	29.534 
03:15	52.6	52.6	52.6	89	49.4	2	9	90	0.00	29.517 
03:20	52.3	52.3	52.3	89	49.2	2	5	112	0.00	29.517 
03:25	52.3	52.3	52.3	89	49.2	2	5	248	0.00	29.517 
03:30	52.2	52.2	52.2	89	49.1	2	5	248	0.00	29.513 
03:35	52.0	52.0	52.0	89	48.9	2	4	270	0.00	29.513 
03:40	51.9	51.9	51.9	89	48.8	1	3	180	0.00	29.513 
03:45	51.7	51.7	51.7	89	48.6	2	4	248	0.00	29.504 
03:50	51.7	51.7	51.7	89	48.6	2	6	248	0.00	29.504 
03:55	51.7	51.7	51.7	89	48.6	2	5	248	0.00	29.504 
04:00	51.7	51.7	51.7	89	48.6	2	6	248	0.00	29.494 
04:05	51.7	51.7	51.7	89	48.6	1	6	202	0.00	29.494 
04:10	51.6	51.6	51.6	89	48.5	1	3	0	0.00	29.494 
04:15	51.6	51.6	51.6	89	48.5	2	4	270	0.00	29.487 
04:20	51.6	51.6	51.6	89	48.5	1	3	270	0.00	29.487 
04:25	51.6	51.6	51.6	89	48.5	1	4	270	0.00	29.487 
04:30	51.6	51.6	51.6	88	48.2	2	6	248	0.00	29.476 
04:35	51.7	51.7	51.7	88	48.3	2	10	248	0.00	29.476 
04:40	51.9	51.9	51.9	87	48.2	2	6	248	0.00	29.476 
04:45	51.9	51.9	51.9	87	48.2	2	7	225	0.00	29.469 
04:50	51.9	51.9	51.9	87	48.2	2	5	248	0.00	29.469 
04:55	51.9	51.9	51.9	87	48.2	2	5	248	0.00	29.469 
05:00	51.7	51.7	51.7	87	48.0	2	6	225	0.00	29.460 
05:05	51.7	51.7	51.7	87	48.0	2	6	248	0.00	29.460 
05:10	51.6	51.6	51.6	87	47.9	1	3	248	0.00	29.460 
05:15	51.3	51.3	51.3	87	47.6	1	4	248	0.00	29.456 
05:20	51.1	51.1	51.1	87	47.4	1	7	112	0.00	29.456 
05:25	51.0	51.0	51.0	88	47.6	1	3	135	0.00	29.456 
05:30	50.8	50.8	50.8	88	47.4	1	3	0	0.00	29.454 
05:35	50.7	50.7	50.7	88	47.3	1	4	248	0.00	29.454 
05:40	50.5	50.5	50.5	88	47.1	0	3	248	0.00	29.454 
05:45	50.5	50.5	50.5	88	47.1	1	7	248	0.00	29.458 
05:50	50.5	50.5	50.5	88	47.1	1	4	90	0.00	29.458 
05:55	50.5	50.5	50.5	88	47.1	1	2	0	0.00	29.458 
06:00	50.5	50.5	50.5	88	47.1	2	7	90	0.00	29.442 
06:05	50.7	50.7	50.7	88	47.3	2	4	112	0.00	29.442 
06:10	51.0	51.0	51.0	87	47.3	2	5	112	0.00	29.442 
06:15	51.0	51.0	51.0	87	47.3	1	4	90	0.00	29.442 
06:20	51.0	51.0	51.0	87	47.3	2	4	90	0.00	29.442 
06:25	51.0	51.0	51.0	86	47.0	2	7	68	0.00	29.442 
06:30	51.1	51.1	51.1	86	47.1	2	8	248	0.00	29.445 
06:35	51.3	51.3	51.3	85	46.9	2	5	248	0.00	29.445 
06:40	51.1	51.1	51.1	85	46.7	2	3	90	0.00	29.445 
06:45	51.1	51.1	51.1	85	46.7	2	4	45	0.00	29.440 
06:50	51.1	51.1	51.1	85	46.7	2	5	90	0.00	29.440 
06:55	51.3	51.3	51.3	84	46.6	3	7	90	0.00	29.440 
07:00	51.4	51.4	51.4	84	46.7	2	6	45	0.00	29.442 
07:05	51.4	51.4	51.4	84	46.7	2	6	270	0.00	29.442 
07:10	51.4	51.4	51.4	84	46.7	2	7	248	0.00	29.442 
07:15	51.4	51.4	51.4	83	46.4	2	6	270	0.00	29.443 
07:20	51.6	51.6	51.6	83	46.6	2	5	248	0.00	29.443 
07:25	51.7	51.7	51.7	83	46.7	3	6	248	0.00	29.443 
07:30	51.7	51.7	51.7	82	46.4	2	6	270	0.00	29.439 
07:35	52.0	52.0	52.0	81	46.4	2	5	270	0.00	29.439 
07:40	52.3	52.3	52.3	80	46.3	3	9	225	0.00	29.439 
07:45	52.5	52.5	52.5	80	46.5	2	6	270	0.00	29.432 
07:50	52.6	52.6	52.6	80	46.6	2	6	248	0.00	29.432 
07:55	52.8	52.8	52.8	79	46.5	3	9	270	0.00	29.432 
08:00	52.9	52.9	52.9	79	46.6	2	6	248	0.00	29.426 
08:05	52.9	52.9	52.9	79	46.6	2	7	90	0.00	29.426 
08:10	53.1	53.1	53.1	80	47.1	2	10	0	0.00	29.426 
08:15	53.3	53.3	53.3	78	46.6	4	12	248	0.00	29.418 
08:20	53.5	53.5	53.5	77	46.5	4	10	248	0.00	29.418 
08:25	53.5	53.5	53.5	78	46.8	4	13	248	0.00	29.418 
08:30	53.3	53.3	53.3	78	46.6	5	14	248	0.00	29.411 
08:35	52.9	52.9	52.9	80	46.9	5	11	248	0.01	29.411 
08:40	52.6	52.6	52.6	81	46.9	5	13	270	0.00	29.411 
08:45	52.3	52.3	52.3	82	47.0	5	11	225	0.00	29.408 
08:50	52.2	52.2	52.2	82	46.9	6	13	248	0.00	29.408 
08:55	51.9	51.9	51.9	83	46.9	6	12	248	0.00	29.408 
09:00	51.9	51.9	51.9	83	46.9	6	16	248	0.01	29.409 
09:05	51.7	51.7	51.7	82	46.4	8	18	248	0.00	29.409 
09:10	51.3	51.3	51.3	81	45.7	10	20	248	0.00	29.409 
09:15	50.8	50.8	50.8	81	45.2	8	15	248	0.00	29.410 
09:20	50.4	50.4	50.4	81	44.8	8	18	248	0.00	29.410 
09:25	49.6	45.5	49.6	81	44.0	10	18	248	0.00	29.410 
09:30	48.9	45.0	48.9	82	43.6	9	18	270	0.00	29.422 
09:35	48.3	44.3	48.3	84	43.7	9	18	248	0.00	29.422 
09:40	48.0	44.3	48.0	85	43.7	8	16	270	0.00	29.422 
09:45	47.9	45.8	47.9	86	43.9	5	12	270	0.00	29.417 
09:50	47.7	44.4	47.7	87	44.0	7	15	248	0.00	29.417 
09:55	47.6	44.8	47.6	88	44.2	6	10	270	0.00	29.417 
10:00	47.6	44.8	47.6	88	44.2	6	15	248	0.00	29.415 
10:05	47.4	44.6	47.4	88	44.0	6	13	248	0.00	29.415 
10:10	47.4	44.6	47.4	88	44.0	6	11	248	0.00	29.415 
10:15	47.3	43.9	47.3	89	44.2	7	16	248	0.00	29.419 
10:20	47.3	44.5	47.3	89	44.2	6	15	248	0.00	29.419 
10:25	47.3	43.9	47.3	88	43.9	7	21	270	0.00	29.419 
10:30	47.4	44.6	47.4	88	44.0	6	14	270	0.00	29.421 
10:35	47.6	44.3	47.6	88	44.2	7	15	248	0.00	29.421 
10:40	47.6	43.8	47.6	87	43.9	8	19	270	0.00	29.421 
10:45	47.6	44.3	47.6	87	43.9	7	15	248	0.00	29.428 
10:50	47.6	43.8	47.6	87	43.9	8	15	248	0.00	29.428 
10:55	47.6	44.8	47.6	88	44.2	6	14	270	0.00	29.428 
11:00	47.4	43.6	47.4	87	43.7	8	15	270	0.00	29.433 
11:05	47.1	42.8	47.1	88	43.7	9	20	270	0.00	29.433 
11:10	46.8	42.5	46.8	87	43.1	9	20	270	0.00	29.433 
11:15	45.5	40.1	45.5	85	41.3	11	21	270	0.00	29.458 
11:20	44.6	40.2	44.6	85	40.4	8	18	270	0.00	29.458 
11:25	44.5	41.8	44.5	87	40.9	5	10	270	0.00	29.458 
11:30	44.1	40.1	44.1	85	39.9	7	16	270	0.00	29.477 
11:35	43.9	40.4	43.9	86	40.0	6	13	270	0.00	29.477 
11:40	43.5	39.4	43.5	87	39.9	7	15	270	0.00	29.477 
11:45	43.2	39.0	43.2	88	39.9	7	14	270	0.00	29.494 
11:50	42.9	38.6	42.9	88	39.6	7	15	270	0.00	29.494 
11:55	42.8	39.1	42.8	88	39.5	6	13	270	0.01	29.494 
12:00	42.6	38.9	42.6	87	39.0	6	12	270	0.00	29.500 
12:05	42.5	40.2	42.5	87	38.9	4	9	270	0.00	29.500 
12:10	42.5	39.4	42.5	87	38.9	5	13	270	0.00	29.500 
12:15	42.8	40.6	42.8	88	39.5	4	10	270	0.00	29.512 
12:20	42.9	39.9	42.9	87	39.3	5	11	270	0.00	29.512 
12:25	42.9	39.2	42.9	87	39.3	6	17	270	0.00	29.512 
12:30	42.8	39.1	42.8	86	38.9	6	16	270	0.00	29.529 
12:35	42.8	38.5	42.8	85	38.6	7	15	270	0.00	29.529 
12:40	42.6	39.5	42.6	85	38.4	5	11	270	0.00	29.529 
12:45	42.6	39.5	42.6	85	38.4	5	11	270	0.00	29.546 
12:50	42.3	37.9	42.3	83	37.5	7	15	270	0.00	29.546 
12:55	42.3	38.5	42.3	83	37.5	6	12	270	0.00	29.546 
13:00	42.3	39.2	42.3	84	37.8	5	10	270	0.00	29.559 
13:05	42.2	38.4	42.2	83	37.4	6	13	270	0.00	29.559 
13:10	42.1	38.3	42.1	82	37.0	6	14	270	0.00	29.559 
13:15	41.9	38.7	41.9	83	37.1	5	11	270	0.00	29.574 
13:20	41.8	37.9	41.8	81	36.4	6	14	270	0.00	29.574 
13:25	41.6	37.7	41.6	81	36.2	6	14	270	0.00	29.574 
13:30	41.6	38.4	41.6	80	35.9	5	11	270	0.00	29.592 
13:35	41.6	37.7	41.6	80	35.9	6	13	292	0.00	29.592 
13:40	41.8	38.6	41.8	80	36.1	5	12	270	0.00	29.592 
13:45	41.6	37.7	41.6	80	35.9	6	11	270	0.00	29.614 
13:50	41.6	38.4	41.6	79	35.6	5	12	270	0.00	29.614 
13:55	41.6	37.7	41.6	79	35.6	6	13	292	0.00	29.614 
14:00	41.6	38.4	41.6	80	35.9	5	11	292	0.00	29.634 
14:05	41.5	36.9	41.5	78	35.2	7	13	292	0.00	29.634 
14:10	41.3	38.0	41.3	79	35.3	5	12	270	0.00	29.634 
14:15	41.3	37.3	41.3	79	35.3	6	14	315	0.00	29.656 
14:20	41.2	37.9	41.2	79	35.2	5	11	292	0.00	29.656 
14:25	40.9	36.2	40.9	79	34.9	7	17	270	0.00	29.656 
14:30	40.6	35.9	40.6	79	34.6	7	17	315	0.00	29.674 
14:35	40.6	35.9	40.6	80	34.9	7	15	270	0.00	29.674 
14:40	40.5	36.4	40.5	80	34.8	6	14	270	0.00	29.674 
14:45	40.5	35.7	40.5	79	34.5	7	18	270	0.00	29.694 
14:50	40.5	37.1	40.5	79	34.5	5	13	292	0.00	29.694 
14:55	40.6	38.0	40.6	80	34.9	4	10	292	0.00	29.694 
15:00	40.6	37.2	40.6	79	34.6	5	10	270	0.00	29.706 
15:05	40.8	37.4	40.8	78	34.5	5	16	315	0.00	29.706 
15:10	40.9	37.5	40.9	78	34.6	5	12	270	0.00	29.706 
15:15	41.1	37.8	41.1	77	34.4	5	14	315	0.00	29.720 
15:20	41.1	37.8	41.1	78	34.8	5	10	292	0.00	29.720 
15:25	41.2	37.9	41.2	78	34.9	5	15	315	0.00	29.720 
15:30	41.2	37.9	41.2	77	34.5	5	16	292	0.00	29.736 
15:35	41.3	37.3	41.3	75	34.0	6	12	315	0.00	29.736 
15:40	41.3	38.0	41.3	76	34.3	5	12	292	0.00	29.736 
15:45	41.5	38.2	41.5	75	34.2	5	12	315	0.00	29.750 
15:50	41.5	36.9	41.5	73	33.5	7	19	315	0.00	29.750 
15:55	41.8	37.3	41.8	71	33.1	7	16	315	0.00	29.750 
16:00	42.3	40.0	42.3	72	33.9	4	11	315	0.00	29.756 
16:05	42.9	39.9	42.9	69	33.4	5	14	315	0.00	29.756 
16:10	43.6	41.5	43.6	68	33.7	4	9	292	0.00	29.756 
16:15	44.2	41.4	44.2	66	33.6	5	13	270	0.00	29.765 
16:20	44.2	41.4	44.2	65	33.2	5	12	315	0.00	29.765 
16:25	44.6	41.9	44.6	64	33.2	5	13	292	0.00	29.765 
16:30	44.9	43.0	44.9	65	33.9	4	13	292	0.00	29.781 
16:35	44.6	41.9	44.6	63	32.8	5	12	270	0.00	29.781 
16:40	44.2	42.2	44.2	65	33.2	4	13	315	0.00	29.781 
16:45	43.9	41.1	43.9	65	32.9	5	13	292	0.00	29.799 
16:50	43.6	40.7	43.6	65	32.6	5	17	315	0.00	29.799 
16:55	43.2	40.2	43.2	64	31.9	5	13	315	0.00	29.799 
17:00	42.9	39.9	42.9	66	32.3	5	15	292	0.00	29.813 
17:05	42.8	39.8	42.8	67	32.6	5	13	315	0.00	29.813 
17:10	42.6	39.5	42.6	68	32.8	5	13	270	0.00	29.813 
17:15	42.8	39.8	42.8	68	33.0	5	13	315	0.00	29.816 
17:20	43.1	40.1	43.1	66	32.5	5	13	315	0.00	29.816 
17:25	43.1	39.5	43.1	67	32.9	6	12	292	0.00	29.816 
17:30	42.9	39.9	42.9	67	32.7	5	15	315	0.00	29.830 
17:35	42.9	39.9	42.9	68	33.1	5	10	338	0.00	29.830 
17:40	42.9	40.7	42.9	68	33.1	4	10	315	0.00	29.830 
17:45	42.9	39.2	42.9	67	32.7	6	15	292	0.00	29.847 
17:50	42.9	40.7	42.9	68	33.1	4	10	292	0.00	29.847 
17:55	42.9	39.9	42.9	68	33.1	5	11	292	0.00	29.847 
18:00	43.1	40.1	43.1	65	32.1	5	11	315	0.00	29.860 
18:05	43.2	40.2	43.2	63	31.5	5	15	338	0.00	29.860 
18:10	43.3	41.1	43.3	63	31.6	4	10	315	0.00	29.860 
18:15	43.3	40.3	43.3	62	31.2	5	16	292	0.00	29.865 
18:20	43.3	40.3	43.3	62	31.2	5	13	292	0.00	29.865 
18:25	43.3	40.3	43.3	62	31.2	5	12	270	0.00	29.865 
18:30	43.6	41.5	43.6	62	31.5	4	10	315	0.00	29.879 
18:35	44.1	41.3	44.1	60	31.1	5	16	270	0.00	29.879 
18:40	44.1	44.1	44.1	62	31.9	3	9	292	0.00	29.879 
18:45	43.9	43.9	43.9	62	31.7	3	7	292	0.00	29.888 
18:50	43.6	41.5	43.6	61	31.0	4	12	292	0.00	29.888 
18:55	43.5	41.4	43.5	61	31.0	4	9	292	0.00	29.888 
19:00	43.3	41.1	43.3	62	31.2	4	10	315	0.00	29.898 
19:05	43.5	43.5	43.5	62	31.4	3	9	315	0.00	29.898 
19:10	43.5	41.4	43.5	62	31.4	4	9	292	0.00	29.898 
19:15	43.5	41.4	43.5	62	31.4	4	17	315	0.00	29.906 
19:20	43.5	40.6	43.5	62	31.4	5	10	315	0.00	29.906 
19:25	43.5	43.5	43.5	62	31.4	3	11	292	0.00	29.906 
19:30	43.6	43.6	43.6	62	31.5	3	9	270	0.00	29.910 
19:35	43.5	43.5	43.5	62	31.4	2	7	270	0.00	29.910 
19:40	43.5	41.4	43.5	60	30.5	4	13	270	0.00	29.910 
19:45	43.3	43.3	43.3	58	29.5	3	9	315	0.00	29.917 
19:50	43.2	43.2	43.2	59	29.9	3	7	270	0.00	29.917 
19:55	43.1	43.1	43.1	59	29.8	3	6	292	0.00	29.917 
20:00	42.9	42.9	42.9	60	30.0	2	6	338	0.00	29.924 
20:05	42.9	42.9	42.9	60	30.0	3	7	270	0.00	29.924 
20:10	42.9	42.9	42.9	61	30.4	3	6	292	0.00	29.924 
20:15	42.8	42.8	42.8	62	30.7	2	5	338	0.00	29.931 
20:20	42.5	42.5	42.5	62	30.4	2	6	270	0.00	29.931 
20:25	42.5	42.5	42.5	62	30.4	2	7	270	0.00	29.931 
20:30	42.3	42.3	42.3	63	30.6	1	4	315	0.00	29.940 
20:35	42.3	42.3	42.3	62	30.2	2	5	270	0.00	29.940 
20:40	42.2	42.2	42.2	63	30.5	2	5	270	0.00	29.940 
20:45	42.1	42.1	42.1	63	30.4	2	5	270	0.00	29.944 
20:50	41.9	41.9	41.9	63	30.2	2	4	248	0.00	29.944 
20:55	41.6	41.6	41.6	64	30.3	1	2	248	0.00	29.944 
21:00	41.5	41.5	41.5	64	30.2	2	3	270	0.00	29.953 
21:05	41.3	41.3	41.3	65	30.4	1	3	248	0.00	29.953 
21:10	41.1	41.1	41.1	66	30.6	1	2	248	0.00	29.953 
21:15	40.8	40.8	40.8	67	30.7	1	2	248	0.00	29.962 
21:20	40.6	40.6	40.6	68	30.9	1	2	248	0.00	29.962 
21:25	40.3	40.3	40.3	68	30.6	1	2	248	0.00	29.962 
21:30	40.2	40.2	40.2	69	30.9	1	3	248	0.00	29.971 
21:35	40.1	40.1	40.1	69	30.8	1	2	248	0.00	29.971 
21:40	39.8	39.8	39.8	70	30.8	1	2	248	0.00	29.971 
21:45	39.6	39.6	39.6	70	30.6	1	3	248	0.00	29.976 
21:50	39.5	39.5	39.5	70	30.5	1	3	248	0.00	29.976 
21:55	39.5	39.5	39.5	69	30.2	1	3	248	0.00	29.976 
22:00	39.5	39.5	39.5	69	30.2	1	3	248	0.00	29.983 
22:05	39.5	39.5	39.5	69	30.2	1	3	248	0.00	29.983 
22:10	39.3	39.3	39.3	70	30.3	1	3	248	0.00	29.983 
22:15	39.2	39.2	39.2	70	30.3	1	3	248	0.00	29.987 
22:20	39.2	39.2	39.2	71	30.6	1	5	248	0.00	29.987 
22:25	39.2	39.2	39.2	72	30.9	1	4	248	0.00	29.987 
22:30	39.2	39.2	39.2	72	30.9	1	5	248	0.00	29.991 
22:35	39.2	39.2	39.2	71	30.6	2	4	248	0.00	29.991 
22:40	39.3	39.3	39.3	71	30.7	1	4	248	0.00	29.991 
22:45	39.2	39.2	39.2	71	30.6	1	3	248	0.00	29.993 
22:50	39.1	39.1	39.1	71	30.5	1	3	248	0.00	29.993 
22:55	38.8	38.8	38.8	71	30.2	1	4	248	0.00	29.993 
23:00	38.8	38.8	38.8	71	30.2	1	4	248	0.00	29.993 
23:05	38.6	38.6	38.6	72	30.4	1	3	248	0.00	29.993 
23:10	38.6	38.6	38.6	72	30.4	2	4	248	0.00	29.993 
23:15	38.6	38.6	38.6	72	30.4	2	4	248	0.00	29.999 
23:20	38.6	38.6	38.6	72	30.4	1	3	248	0.00	29.999 
23:25	38.5	38.5	38.5	72	30.3	1	4	248	0.00	29.999 
23:30	38.5	38.5	38.5	73	30.6	1	3	248	0.00	30.003 
23:35	38.3	38.3	38.3	73	30.4	1	4	270	0.00	30.003 
23:40	38.2	38.2	38.2	73	30.3	1	3	248	0.00	30.003 
23:45	37.9	37.9	37.9	74	30.4	1	4	248	0.00	30.007 
23:50	37.9	37.9	37.9	74	30.4	1	3	248	0.00	30.007 
23:55	37.8	37.8	37.8	74	30.3	1	3	248	0.00	30.007 

CoCoRaHS
IN-AL-39
A2 Web Hosting
Creative Commons License
GoDaddy
Look for:

loaded 2017-12-12 07:18:56 • last modified 2010-11-18 10:43:29
Privacy PolicyDisclaimer
• wx.awcolley.com is powered by PmWiki v.2002016 •
• all content (unless otherwise noted) © 2017 A W Colley